Time;durP1;ratioP1;P1;durP2;ratioP2;P2;SDS_P1;SDS_P2;PMS_P1;PMS_P2;Temp;Humidity;BMP_temperature;BMP_pressure;BME280_temperature;BME280_humidity;BME280_pressure;Samples;Min_cycle;Max_cycle;Signal;HPM_P1;HPM_P2
2022/09/24 00:01:34;;;;;;;;;13.00;13.00;;;;;;;;5043677;28;45734;-69
2022/09/24 00:04:01;;;;;;;;;14.33;12.33;;;;;;;;5044962;28;45318;-69
2022/09/24 00:06:28;;;;;;;;;14.00;11.00;;;;;;;;5044351;28;45302;-69
2022/09/24 00:08:54;;;;;;;;;13.33;11.00;;;;;;;;5044394;28;45311;-69
2022/09/24 00:11:20;;;;;;;;;11.33;11.33;;;;;;;;5058367;28;46013;-69
2022/09/24 00:13:45;;;;;;;;;14.67;13.00;;;;;;;;5044451;28;45195;-69
2022/09/24 00:16:12;;;;;;;;;13.67;12.67;;;;;;;;5044105;28;45488;-69
2022/09/24 00:18:38;;;;;;;;;17.00;15.00;;;;;;;;5044340;28;45460;-70
2022/09/24 00:21:23;;;;;;;;;11.33;11.33;;;;;;;;5059146;28;45452;-69
2022/09/24 00:23:50;;;;;;;;;22.33;18.00;;;;;;;;5043576;28;45280;-69
2022/09/24 00:28:59;;;;;;;;;8.00;8.00;;;;;;;;5044162;28;45760;-69
2022/09/24 00:31:24;;;;;;;;;16.00;13.33;;;;;;;;5043188;28;45482;-69
2022/09/24 00:33:51;;;;;;;;;14.67;12.33;;;;;;;;5044243;28;45287;-69
2022/09/24 00:36:16;;;;;;;;;16.67;15.33;;;;;;;;5044443;28;45379;-69
2022/09/24 00:38:42;;;;;;;;;17.67;16.67;;;;;;;;5043171;28;45420;-69
2022/09/24 00:41:07;;;;;;;;;19.00;17.00;;;;;;;;5042401;28;45220;-69
2022/09/24 00:43:35;;;;;;;;;17.00;17.00;;;;;;;;5043902;28;45490;-69
2022/09/24 00:46:09;;;;;;;;;15.00;15.00;;;;;;;;5043612;28;45917;-69
2022/09/24 00:48:36;;;;;;;;;15.33;12.33;;;;;;;;5043641;28;45412;-69
2022/09/24 00:51:02;;;;;;;;;14.33;12.00;;;;;;;;5043090;28;45422;-69
2022/09/24 00:53:32;;;;;;;;;14.00;13.00;;;;;;;;5021959;28;45311;-69
2022/09/24 00:55:58;;;;;;;;;14.67;13.00;;;;;;;;5043305;28;45446;-69
2022/09/24 00:58:23;;;;;;;;;15.00;12.33;;;;;;;;5043678;28;45432;-69
2022/09/24 01:00:52;;;;;;;;;11.00;11.00;;;;;;;;5042880;28;45508;-69
2022/09/24 01:03:22;;;;;;;;;18.33;13.00;;;;;;;;5043767;28;45561;-69
2022/09/24 01:05:47;;;;;;;;;13.00;12.67;;;;;;;;5043726;28;45280;-69
2022/09/24 01:08:13;;;;;;;;;15.00;13.67;;;;;;;;5043289;28;46168;-69
2022/09/24 01:10:56;;;;;;;;;11.00;9.33;;;;;;;;5042962;28;45256;-69
2022/09/24 01:13:30;;;;;;;;;17.00;15.00;;;;;;;;5037949;28;45549;-69
2022/09/24 01:16:01;;;;;;;;;11.67;11.67;;;;;;;;5043269;28;45431;-69
2022/09/24 01:18:38;;;;;;;;;15.67;14.33;;;;;;;;5043624;28;45343;-69
2022/09/24 01:21:20;;;;;;;;;13.00;13.00;;;;;;;;5040729;28;45576;-69
2022/09/24 01:24:00;;;;;;;;;17.33;16.33;;;;;;;;5043488;28;45177;-70
2022/09/24 01:26:38;;;;;;;;;15.33;14.00;;;;;;;;5043558;28;45462;-70
2022/09/24 01:29:16;;;;;;;;;17.67;15.33;;;;;;;;5043169;28;46298;-69
2022/09/24 01:31:45;;;;;;;;;16.00;12.33;;;;;;;;5016396;28;45508;-70
2022/09/24 01:34:14;;;;;;;;;16.67;13.00;;;;;;;;5041816;28;45327;-70
2022/09/24 01:36:41;;;;;;;;;14.00;13.67;;;;;;;;5043241;28;45343;-70
2022/09/24 01:39:07;;;;;;;;;16.00;15.00;;;;;;;;5016243;28;46002;-68
2022/09/24 01:41:34;;;;;;;;;17.67;16.33;;;;;;;;5042641;28;45394;-68
2022/09/24 01:44:00;;;;;;;;;12.00;12.00;;;;;;;;5043104;28;45372;-68
2022/09/24 01:46:26;;;;;;;;;14.67;13.67;;;;;;;;5042753;28;45505;-68
2022/09/24 01:48:51;;;;;;;;;14.67;14.33;;;;;;;;5020574;28;45961;-67
2022/09/24 01:51:23;;;;;;;;;12.00;11.00;;;;;;;;5041999;28;45406;-68
2022/09/24 01:54:02;;;;;;;;;12.33;11.67;;;;;;;;5043009;28;45294;-68
2022/09/24 01:56:49;;;;;;;;;16.00;14.67;;;;;;;;5042733;28;45304;-69
2022/09/24 01:59:40;;;;;;;;;16.33;14.33;;;;;;;;5042754;28;46271;-69
2022/09/24 02:02:12;;;;;;;;;17.67;13.67;;;;;;;;5037695;28;45551;-67
2022/09/24 02:04:41;;;;;;;;;15.00;14.67;;;;;;;;5043098;28;45365;-67
2022/09/24 02:07:12;;;;;;;;;15.00;13.67;;;;;;;;5042674;28;45457;-69
2022/09/24 02:09:39;;;;;;;;;13.33;13.33;;;;;;;;5018871;28;45740;-68
2022/09/24 02:12:06;;;;;;;;;12.33;12.33;;;;;;;;5042106;28;45457;-68
2022/09/24 02:14:35;;;;;;;;;12.00;12.00;;;;;;;;5042928;28;45479;-68
2022/09/24 02:17:02;;;;;;;;;16.67;15.33;;;;;;;;5042075;28;45242;-67
2022/09/24 02:19:28;;;;;;;;;15.33;13.33;;;;;;;;5042709;28;45478;-68
2022/09/24 02:21:53;;;;;;;;;13.67;12.33;;;;;;;;5021550;28;45429;-69
2022/09/24 02:24:21;;;;;;;;;16.00;13.00;;;;;;;;5042415;28;45301;-68
2022/09/24 02:26:47;;;;;;;;;16.00;15.67;;;;;;;;5041755;28;45292;-68
2022/09/24 02:29:12;;;;;;;;;15.33;13.00;;;;;;;;5019891;28;47003;-68
2022/09/24 02:31:40;;;;;;;;;13.33;11.67;;;;;;;;5031572;28;45355;-68
2022/09/24 02:34:20;;;;;;;;;11.33;11.33;;;;;;;;5041816;28;45157;-68
2022/09/24 02:36:46;;;;;;;;;12.33;12.33;;;;;;;;5057734;28;45574;-68
2022/09/24 02:39:12;;;;;;;;;14.67;14.00;;;;;;;;5042130;28;46438;-68
2022/09/24 02:41:38;;;;;;;;;16.67;15.00;;;;;;;;5041629;28;45334;-68
2022/09/24 02:44:03;;;;;;;;;16.33;14.00;;;;;;;;5042400;28;45397;-68
2022/09/24 02:46:29;;;;;;;;;16.33;15.33;;;;;;;;5041918;28;45235;-68
2022/09/24 02:48:54;;;;;;;;;15.33;15.00;;;;;;;;5042395;28;45291;-68
2022/09/24 02:51:20;;;;;;;;;12.67;12.67;;;;;;;;5041395;28;45409;-68
2022/09/24 02:53:45;;;;;;;;;11.33;11.33;;;;;;;;5042477;28;45413;-68
2022/09/24 02:56:10;;;;;;;;;10.67;10.67;;;;;;;;5041781;28;45629;-68
2022/09/24 02:58:38;;;;;;;;;15.33;12.33;;;;;;;;5023452;28;47445;-68
2022/09/24 03:01:04;;;;;;;;;15.00;13.00;;;;;;;;5041136;28;45493;-68
2022/09/24 03:03:29;;;;;;;;;15.33;14.67;;;;;;;;5043639;28;45312;-68
2022/09/24 03:05:55;;;;;;;;;15.33;13.00;;;;;;;;5045533;28;45303;-68
2022/09/24 03:08:21;;;;;;;;;15.00;13.67;;;;;;;;5061004;28;46333;-68
2022/09/24 03:10:46;;;;;;;;;15.33;14.00;;;;;;;;5059597;28;45779;-68
2022/09/24 03:13:12;;;;;;;;;18.00;16.33;;;;;;;;5044156;28;45398;-68
2022/09/24 03:15:37;;;;;;;;;17.67;13.67;;;;;;;;5021321;28;45556;-68
2022/09/24 03:18:02;;;;;;;;;18.00;18.00;;;;;;;;5045305;28;46353;-69
2022/09/24 03:20:28;;;;;;;;;15.00;15.00;;;;;;;;5022399;28;45899;-69
2022/09/24 03:22:53;;;;;;;;;17.00;17.00;;;;;;;;5045525;28;45341;-68
2022/09/24 03:25:19;;;;;;;;;16.00;14.67;;;;;;;;5060623;28;45576;-68
2022/09/24 03:27:44;;;;;;;;;18.33;16.00;;;;;;;;5060122;28;47014;-68
2022/09/24 03:32:54;;;;;;;;;17.33;15.00;;;;;;;;5041889;28;45157;-68
2022/09/24 03:35:20;;;;;;;;;20.00;16.00;;;;;;;;5044924;28;45448;-69
2022/09/24 03:37:45;;;;;;;;;18.67;15.67;;;;;;;;5044977;28;46296;-68
2022/09/24 03:40:11;;;;;;;;;15.67;15.33;;;;;;;;5044284;28;45387;-69
2022/09/24 03:42:36;;;;;;;;;20.67;18.33;;;;;;;;5044730;28;45489;-68
2022/09/24 03:45:01;;;;;;;;;17.67;15.33;;;;;;;;5045099;28;45316;-68
2022/09/24 03:47:27;;;;;;;;;21.33;16.67;;;;;;;;5044352;28;45471;-68
2022/09/24 03:49:52;;;;;;;;;17.33;16.00;;;;;;;;5044657;28;45658;-68
2022/09/24 03:52:17;;;;;;;;;17.67;17.00;;;;;;;;5044523;28;45486;-68
2022/09/24 03:54:42;;;;;;;;;20.00;17.00;;;;;;;;5045022;28;45364;-68
2022/09/24 03:57:08;;;;;;;;;19.00;18.00;;;;;;;;5044090;28;45373;-68
2022/09/24 03:59:33;;;;;;;;;17.33;17.33;;;;;;;;5044563;28;45536;-68
2022/09/24 04:01:58;;;;;;;;;18.67;15.00;;;;;;;;5043827;28;45309;-67
2022/09/24 04:04:23;;;;;;;;;15.33;14.67;;;;;;;;5045039;28;45343;-67
2022/09/24 04:06:48;;;;;;;;;20.33;16.00;;;;;;;;5043823;28;46207;-68
2022/09/24 04:09:14;;;;;;;;;16.67;15.00;;;;;;;;5018476;28;45260;-67
2022/09/24 04:11:39;;;;;;;;;18.67;16.00;;;;;;;;5043972;28;45410;-68
2022/09/24 04:14:04;;;;;;;;;17.33;14.67;;;;;;;;5044881;28;45350;-67
2022/09/24 04:16:29;;;;;;;;;14.67;14.33;;;;;;;;5043384;28;46704;-68
2022/09/24 04:18:54;;;;;;;;;16.67;16.67;;;;;;;;5044311;28;45315;-68
2022/09/24 04:21:20;;;;;;;;;16.33;15.67;;;;;;;;5043855;28;45454;-67
2022/09/24 04:23:45;;;;;;;;;16.00;15.00;;;;;;;;5026717;28;45441;-67
2022/09/24 04:26:11;;;;;;;;;15.67;12.67;;;;;;;;5043698;28;46220;-68
2022/09/24 04:28:36;;;;;;;;;16.67;16.33;;;;;;;;5044181;28;45374;-68
2022/09/24 04:31:01;;;;;;;;;16.00;15.00;;;;;;;;5013236;28;45304;-68
2022/09/24 04:33:26;;;;;;;;;15.00;14.33;;;;;;;;5060049;28;45368;-68
2022/09/24 04:35:52;;;;;;;;;16.33;16.33;;;;;;;;5043306;28;45465;-67
2022/09/24 04:38:18;;;;;;;;;14.00;14.00;;;;;;;;5044012;28;45379;-68
2022/09/24 04:40:46;;;;;;;;;14.33;13.00;;;;;;;;5043232;28;45493;-68
2022/09/24 04:43:11;;;;;;;;;18.00;16.33;;;;;;;;5044105;28;45580;-68
2022/09/24 04:45:36;;;;;;;;;15.00;15.00;;;;;;;;5039305;28;47709;-68
2022/09/24 04:48:01;;;;;;;;;14.67;12.67;;;;;;;;5043594;28;45232;-68
2022/09/24 04:50:33;;;;;;;;;15.00;14.33;;;;;;;;5042057;28;45238;-67
2022/09/24 04:52:58;;;;;;;;;8.67;7.00;;;;;;;;5044172;28;45387;-67
2022/09/24 04:55:24;;;;;;;;;13.00;13.00;;;;;;;;5043091;28;45623;-67
2022/09/24 04:57:50;;;;;;;;;11.67;11.00;;;;;;;;5039891;28;45398;-67
2022/09/24 05:00:16;;;;;;;;;14.67;14.00;;;;;;;;5042878;28;45453;-68
2022/09/24 05:02:43;;;;;;;;;13.67;13.00;;;;;;;;5043229;28;45581;-67
2022/09/24 05:05:09;;;;;;;;;13.00;10.00;;;;;;;;5042752;28;46213;-67
2022/09/24 05:07:35;;;;;;;;;14.00;14.00;;;;;;;;5041328;28;45548;-67
2022/09/24 05:10:00;;;;;;;;;13.00;12.33;;;;;;;;5043053;28;45505;-67
2022/09/24 05:12:25;;;;;;;;;16.00;16.00;;;;;;;;5043794;28;45263;-67
2022/09/24 05:14:50;;;;;;;;;16.00;12.00;;;;;;;;5042922;28;46124;-68
2022/09/24 05:17:16;;;;;;;;;14.67;14.00;;;;;;;;5042458;28;45228;-68
2022/09/24 05:19:41;;;;;;;;;14.00;14.00;;;;;;;;5043389;28;45609;-67
2022/09/24 05:22:06;;;;;;;;;18.67;15.33;;;;;;;;5043253;28;45453;-67
2022/09/24 05:24:31;;;;;;;;;14.67;12.00;;;;;;;;5043387;28;45252;-68
2022/09/24 05:27:09;;;;;;;;;17.33;13.67;;;;;;;;5041674;28;45336;-68
2022/09/24 05:29:42;;;;;;;;;16.67;16.67;;;;;;;;5043108;28;45504;-68
2022/09/24 05:32:08;;;;;;;;;12.00;12.00;;;;;;;;5042206;28;45364;-68
2022/09/24 05:34:34;;;;;;;;;14.67;14.67;;;;;;;;5057841;28;47313;-68
2022/09/24 05:36:59;;;;;;;;;17.00;15.33;;;;;;;;5042243;28;45243;-68
2022/09/24 05:39:24;;;;;;;;;15.67;15.33;;;;;;;;5042790;28;45228;-68
2022/09/24 05:41:50;;;;;;;;;15.67;15.33;;;;;;;;5042647;28;45280;-68
2022/09/24 05:44:18;;;;;;;;;15.33;12.67;;;;;;;;5041770;28;46690;-69
2022/09/24 05:46:43;;;;;;;;;12.00;12.00;;;;;;;;5018141;28;45589;-69
2022/09/24 05:49:08;;;;;;;;;13.00;13.00;;;;;;;;5042977;28;45295;-69
2022/09/24 05:51:34;;;;;;;;;14.67;14.67;;;;;;;;5042730;28;47414;-69
2022/09/24 05:53:59;;;;;;;;;18.67;16.00;;;;;;;;5021348;28;47696;-68
2022/09/24 05:56:24;;;;;;;;;16.33;16.33;;;;;;;;5040774;28;45932;-68
2022/09/24 05:58:49;;;;;;;;;15.67;15.33;;;;;;;;5042970;28;45374;-67
2022/09/24 06:01:15;;;;;;;;;16.00;15.00;;;;;;;;5039421;28;46760;-68
2022/09/24 06:03:40;;;;;;;;;17.33;16.00;;;;;;;;5037250;28;45431;-68
2022/09/24 06:06:05;;;;;;;;;15.33;14.00;;;;;;;;5041662;28;45541;-68
2022/09/24 06:08:34;;;;;;;;;18.00;14.00;;;;;;;;5042422;28;45248;-68
2022/09/24 06:11:01;;;;;;;;;15.67;15.67;;;;;;;;5057815;28;46295;-68
2022/09/24 06:13:26;;;;;;;;;13.00;13.00;;;;;;;;5041889;28;46079;-67
2022/09/24 06:15:51;;;;;;;;;15.00;15.00;;;;;;;;5041637;28;45307;-68
2022/09/24 06:18:17;;;;;;;;;20.00;15.33;;;;;;;;5042687;28;45329;-69
2022/09/24 06:20:43;;;;;;;;;15.00;15.00;;;;;;;;5042216;28;45453;-68
2022/09/24 06:23:08;;;;;;;;;18.00;14.33;;;;;;;;5042580;28;46568;-67
2022/09/24 06:25:33;;;;;;;;;15.00;13.67;;;;;;;;5041622;28;45386;-68
2022/09/24 06:28:00;;;;;;;;;20.67;17.33;;;;;;;;5042365;28;45291;-68
2022/09/24 06:30:26;;;;;;;;;19.00;16.67;;;;;;;;5042004;28;45319;-67
2022/09/24 06:32:52;;;;;;;;;17.67;16.00;;;;;;;;5037261;28;46428;-69
2022/09/24 06:35:17;;;;;;;;;21.67;18.00;;;;;;;;5013890;28;45521;-68
2022/09/24 06:37:42;;;;;;;;;17.67;17.33;;;;;;;;5042840;28;45331;-68
2022/09/24 06:40:08;;;;;;;;;15.67;15.67;;;;;;;;5045911;28;45474;-69
2022/09/24 06:42:33;;;;;;;;;17.67;16.67;;;;;;;;5045426;28;45803;-68
2022/09/24 06:44:58;;;;;;;;;20.33;18.33;;;;;;;;5020084;28;45247;-68
2022/09/24 06:47:23;;;;;;;;;18.67;16.67;;;;;;;;5044774;28;45255;-68
2022/09/24 06:49:49;;;;;;;;;15.67;14.00;;;;;;;;5046216;28;45351;-68
2022/09/24 06:52:15;;;;;;;;;18.00;17.67;;;;;;;;5044883;28;45768;-68
2022/09/24 06:54:40;;;;;;;;;20.00;11.67;;;;;;;;5045345;28;45291;-67
2022/09/24 06:57:05;;;;;;;;;15.67;15.00;;;;;;;;5045116;28;45323;-68
2022/09/24 06:59:31;;;;;;;;;19.00;17.33;;;;;;;;5046160;28;45267;-68
2022/09/24 07:01:58;;;;;;;;;17.00;15.00;;;;;;;;5044702;28;46276;-69
2022/09/24 07:04:23;;;;;;;;;14.67;14.67;;;;;;;;5045827;28;45275;-68
2022/09/24 07:09:33;;;;;;;;;14.67;14.67;;;;;;;;5046016;28;45499;-69
2022/09/24 07:12:00;;;;;;;;;14.33;13.33;;;;;;;;5044576;28;45430;-67
2022/09/24 07:14:25;;;;;;;;;10.33;9.33;;;;;;;;5045077;28;45406;-68
2022/09/24 07:16:51;;;;;;;;;11.33;11.33;;;;;;;;5044498;28;45387;-69
2022/09/24 07:19:16;;;;;;;;;21.00;18.33;;;;;;;;5045678;28;45544;-68
2022/09/24 07:21:41;;;;;;;;;14.00;12.00;;;;;;;;5044455;28;46573;-68
2022/09/24 07:24:06;;;;;;;;;17.00;16.33;;;;;;;;5045232;28;45417;-69
2022/09/24 07:26:31;;;;;;;;;13.00;13.00;;;;;;;;5044823;28;45449;-69
2022/09/24 07:28:57;;;;;;;;;17.00;15.67;;;;;;;;5045391;28;45367;-69
2022/09/24 07:31:25;;;;;;;;;17.00;16.00;;;;;;;;5043645;28;45528;-69
2022/09/24 07:33:51;;;;;;;;;17.00;14.00;;;;;;;;5043812;28;45374;-69
2022/09/24 07:36:16;;;;;;;;;16.00;14.67;;;;;;;;5042912;28;45429;-69
2022/09/24 07:38:41;;;;;;;;;17.33;13.00;;;;;;;;5044470;28;45558;-69
2022/09/24 07:41:08;;;;;;;;;17.00;17.00;;;;;;;;5010971;28;46985;-68
2022/09/24 07:43:33;;;;;;;;;16.33;15.00;;;;;;;;5025255;28;45382;-68
2022/09/24 07:45:58;;;;;;;;;15.67;15.67;;;;;;;;5015805;28;45379;-68
2022/09/24 07:48:24;;;;;;;;;20.33;17.33;;;;;;;;5043565;28;45514;-69
2022/09/24 07:50:50;;;;;;;;;15.00;15.00;;;;;;;;5042853;28;45394;-68
2022/09/24 07:53:15;;;;;;;;;9.67;7.00;;;;;;;;5043000;28;45456;-68
2022/09/24 07:55:41;;;;;;;;;24.25;22.25;;;;;;;;5020821;28;45395;-68
2022/09/24 07:58:13;;;;;;;;;22.00;21.33;;;;;;;;5025900;28;45501;-68
2022/09/24 08:00:38;;;;;;;;;15.00;14.00;;;;;;;;5041125;28;46834;-68
2022/09/24 08:03:04;;;;;;;;;21.33;21.33;;;;;;;;5043139;28;45437;-69
2022/09/24 08:05:29;;;;;;;;;27.50;24.25;;;;;;;;5042952;28;45390;-68
2022/09/24 08:07:56;;;;;;;;;21.33;17.33;;;;;;;;5043379;28;45457;-69
2022/09/24 08:10:22;;;;;;;;;20.33;18.67;;;;;;;;5042473;28;45464;-68
2022/09/24 08:12:47;;;;;;;;;20.67;20.67;;;;;;;;5042733;28;45254;-68
2022/09/24 08:15:13;;;;;;;;;26.75;22.00;;;;;;;;5042358;28;45654;-68
2022/09/24 08:17:38;;;;;;;;;17.67;17.00;;;;;;;;5043457;28;45490;-68
2022/09/24 08:20:03;;;;;;;;;19.33;17.33;;;;;;;;5042723;28;45666;-68
2022/09/24 08:22:28;;;;;;;;;22.67;19.67;;;;;;;;5042565;28;45291;-68
2022/09/24 08:24:55;;;;;;;;;22.67;18.67;;;;;;;;5043143;28;45200;-68
2022/09/24 08:27:22;;;;;;;;;16.25;15.75;;;;;;;;5042408;28;45227;-68
2022/09/24 08:29:47;;;;;;;;;25.50;22.00;;;;;;;;5042745;28;45420;-68
2022/09/24 08:32:12;;;;;;;;;29.25;25.75;;;;;;;;4992092;28;1310381;-69
2022/09/24 08:34:39;;;;;;;;;33.50;28.25;;;;;;;;5059764;28;45362;-68
2022/09/24 08:37:04;;;;;;;;;28.00;26.50;;;;;;;;5043837;28;45351;-69
2022/09/24 08:39:30;;;;;;;;;36.00;30.75;;;;;;;;5010338;28;46325;-68
2022/09/24 08:41:58;;;;;;;;;31.00;29.75;;;;;;;;5040014;28;45236;-69
2022/09/24 08:47:24;;;;;;;;;27.75;26.00;;;;;;;;5043580;28;45300;-68
2022/09/24 08:50:12;;;;;;;;;30.75;29.00;;;;;;;;5038720;28;46223;-69
2022/09/24 08:52:40;;;;;;;;;26.75;26.00;;;;;;;;5028732;28;45438;-69
2022/09/24 08:55:10;;;;;;;;;26.00;24.75;;;;;;;;5043183;28;45331;-68
2022/09/24 08:57:57;;;;;;;;;22.33;20.67;;;;;;;;5043846;28;45526;-68
2022/09/24 09:00:23;;;;;;;;;29.00;27.00;;;;;;;;5041713;28;45477;-68
2022/09/24 09:02:56;;;;;;;;;26.25;25.50;;;;;;;;5043221;28;45189;-68
2022/09/24 09:05:26;;;;;;;;;32.50;27.25;;;;;;;;5043308;28;45303;-68
2022/09/24 09:07:57;;;;;;;;;32.25;30.00;;;;;;;;5043787;28;45288;-68
2022/09/24 09:10:27;;;;;;;;;26.25;25.50;;;;;;;;5042305;28;45560;-68
2022/09/24 09:12:55;;;;;;;;;29.25;27.25;;;;;;;;5043167;28;45572;-68
2022/09/24 09:15:24;;;;;;;;;25.50;23.50;;;;;;;;5042574;28;45313;-68
2022/09/24 09:17:50;;;;;;;;;27.75;25.25;;;;;;;;5043220;28;45458;-68
2022/09/24 09:20:28;;;;;;;;;26.00;24.00;;;;;;;;5042764;28;45931;-68
2022/09/24 09:22:53;;;;;;;;;28.50;27.50;;;;;;;;5042735;28;45474;-70
2022/09/24 09:25:23;;;;;;;;;31.50;28.50;;;;;;;;5042741;28;45492;-68
2022/09/24 09:27:57;;;;;;;;;26.00;24.25;;;;;;;;5043629;28;45249;-68
2022/09/24 09:30:22;;;;;;;;;27.33;25.67;;;;;;;;5042437;28;45578;-68
2022/09/24 09:33:00;;;;;;;;;26.67;24.67;;;;;;;;5043109;28;45352;-68
2022/09/24 09:35:32;;;;;;;;;25.00;23.00;;;;;;;;5042698;28;45187;-68
2022/09/24 09:38:06;;;;;;;;;22.75;21.75;;;;;;;;5043417;28;45308;-68
2022/09/24 09:40:37;;;;;;;;;31.25;29.75;;;;;;;;5042303;28;46783;-67
2022/09/24 09:43:09;;;;;;;;;27.00;25.50;;;;;;;;5039256;28;45461;-69
2022/09/24 09:45:34;;;;;;;;;22.00;21.00;;;;;;;;5041873;28;45577;-69
2022/09/24 09:48:02;;;;;;;;;24.33;22.33;;;;;;;;5042984;28;45469;-69
2022/09/24 09:51:02;;;;;;;;;20.33;19.00;;;;;;;;5019237;28;47203;-69
2022/09/24 09:53:30;;;;;;;;;20.67;19.00;;;;;;;;4982171;28;45484;-69
2022/09/24 09:55:55;;;;;;;;;28.00;26.00;;;;;;;;5036858;28;45528;-69
2022/09/24 09:58:25;;;;;;;;;20.33;18.00;;;;;;;;5023548;28;45470;-67
2022/09/24 10:00:51;;;;;;;;;24.33;19.67;;;;;;;;5041693;28;46107;-69
2022/09/24 10:03:21;;;;;;;;;18.00;16.33;;;;;;;;5042131;28;45430;-66
2022/09/24 10:05:57;;;;;;;;;21.00;20.67;;;;;;;;5057729;28;45198;-69
2022/09/24 10:08:23;;;;;;;;;20.67;19.00;;;;;;;;5042398;28;45459;-69
2022/09/24 10:10:55;;;;;;;;;21.33;18.67;;;;;;;;5042027;28;46148;-69
2022/09/24 10:13:21;;;;;;;;;14.00;14.00;;;;;;;;5041939;28;45346;-68
2022/09/24 10:15:51;;;;;;;;;16.00;15.67;;;;;;;;5022272;28;45236;-68
2022/09/24 10:18:20;;;;;;;;;23.67;17.67;;;;;;;;5042883;28;45487;-67
2022/09/24 10:20:47;;;;;;;;;19.67;18.67;;;;;;;;5041210;28;46586;-67
2022/09/24 10:23:18;;;;;;;;;20.33;18.00;;;;;;;;5041056;28;45157;-67
2022/09/24 10:25:49;;;;;;;;;16.67;16.67;;;;;;;;5041167;28;45290;-67
2022/09/24 10:31:05;;;;;;;;;27.00;21.33;;;;;;;;5039628;28;45389;-69
2022/09/24 10:33:36;;;;;;;;;17.67;15.67;;;;;;;;5039995;28;45154;-67
2022/09/24 10:36:06;;;;;;;;;24.33;22.00;;;;;;;;5042008;28;45376;-68
2022/09/24 10:38:32;;;;;;;;;18.33;17.67;;;;;;;;5039738;28;45370;-67
2022/09/24 10:40:58;;;;;;;;;21.67;21.00;;;;;;;;5041237;28;46497;-69
2022/09/24 10:43:23;;;;;;;;;19.67;18.67;;;;;;;;5041882;28;45379;-69
2022/09/24 10:46:08;;;;;;;;;23.00;23.00;;;;;;;;5022236;28;45361;-68
2022/09/24 10:48:40;;;;;;;;;17.00;17.00;;;;;;;;5022423;28;45365;-68
2022/09/24 10:51:19;;;;;;;;;23.75;23.75;;;;;;;;5041631;28;46387;-69
2022/09/24 10:53:52;;;;;;;;;19.67;19.67;;;;;;;;5041708;28;45444;-69
2022/09/24 10:56:36;;;;;;;;;18.33;17.00;;;;;;;;5041780;28;45323;-68
2022/09/24 10:59:30;;;;;;;;;20.00;16.00;;;;;;;;5042132;28;45558;-68
2022/09/24 11:02:05;;;;;;;;;20.00;20.00;;;;;;;;5018309;28;45530;-68
2022/09/24 11:04:39;;;;;;;;;19.00;15.33;;;;;;;;5041551;28;45201;-69
2022/09/24 11:07:16;;;;;;;;;17.33;16.00;;;;;;;;5038372;28;45237;-69
2022/09/24 11:09:54;;;;;;;;;20.67;18.33;;;;;;;;5039918;28;45459;-68
2022/09/24 11:12:26;;;;;;;;;18.67;17.33;;;;;;;;5041103;28;45382;-68
2022/09/24 11:15:07;;;;;;;;;17.33;17.33;;;;;;;;5041623;28;45306;-68
2022/09/24 11:17:32;;;;;;;;;21.67;19.00;;;;;;;;5019979;28;45468;-69
2022/09/24 11:20:16;;;;;;;;;21.00;20.33;;;;;;;;5042089;28;45390;-68
2022/09/24 11:23:13;;;;;;;;;19.67;18.00;;;;;;;;5040038;28;46566;-69
2022/09/24 11:25:54;;;;;;;;;24.67;22.33;;;;;;;;5005179;28;45864;-69
2022/09/24 11:28:19;;;;;;;;;18.33;17.33;;;;;;;;5043886;28;45460;-69
2022/09/24 11:31:03;;;;;;;;;14.75;13.25;;;;;;;;5044842;28;45369;-69
2022/09/24 11:33:28;;;;;;;;;22.33;21.00;;;;;;;;5044782;28;45424;-69
2022/09/24 11:36:00;;;;;;;;;19.00;17.25;;;;;;;;5044401;28;45457;-69
2022/09/24 11:38:44;;;;;;;;;20.00;20.00;;;;;;;;5020749;28;45403;-68
2022/09/24 11:41:12;;;;;;;;;22.33;18.67;;;;;;;;5026724;28;46474;-69
2022/09/24 11:43:43;;;;;;;;;19.67;18.33;;;;;;;;5044489;28;46106;-68
2022/09/24 11:46:23;;;;;;;;;23.00;17.67;;;;;;;;5043860;28;45245;-69
2022/09/24 11:49:00;;;;;;;;;19.50;18.75;;;;;;;;5044458;28;45524;-69
2022/09/24 11:51:35;;;;;;;;;24.00;20.00;;;;;;;;5059965;28;45409;-69
2022/09/24 11:54:04;;;;;;;;;23.00;20.00;;;;;;;;5044225;28;46138;-69
2022/09/24 11:56:32;;;;;;;;;22.33;18.67;;;;;;;;5044066;28;45293;-69
2022/09/24 11:59:15;;;;;;;;;23.67;18.33;;;;;;;;5044453;28;45295;-69
2022/09/24 12:01:46;;;;;;;;;22.75;20.25;;;;;;;;5043908;28;45532;-70
2022/09/24 12:04:17;;;;;;;;;13.75;12.50;;;;;;;;5025725;28;47644;-68
2022/09/24 12:06:51;;;;;;;;;19.67;17.00;;;;;;;;5044167;28;45547;-69
2022/09/24 12:09:32;;;;;;;;;21.67;19.00;;;;;;;;5044051;28;45394;-68
2022/09/24 12:12:06;;;;;;;;;19.67;19.67;;;;;;;;5042223;28;45430;-68
2022/09/24 12:14:48;;;;;;;;;23.33;21.67;;;;;;;;5044006;28;46092;-68
2022/09/24 12:17:17;;;;;;;;;22.67;21.33;;;;;;;;5043321;28;45339;-68
2022/09/24 12:20:00;;;;;;;;;20.67;18.33;;;;;;;;5033454;28;45311;-69
2022/09/24 12:22:26;;;;;;;;;18.33;16.33;;;;;;;;5057983;28;45711;-68
2022/09/24 12:24:59;;;;;;;;;16.00;16.00;;;;;;;;5043501;28;46358;-69
2022/09/24 12:27:30;;;;;;;;;19.33;17.33;;;;;;;;5043212;28;45411;-68
2022/09/24 12:32:56;;;;;;;;;22.00;19.00;;;;;;;;5043524;28;45374;-69
2022/09/24 12:35:21;;;;;;;;;18.00;16.00;;;;;;;;5041711;28;46618;-68
2022/09/24 12:37:48;;;;;;;;;21.33;21.33;;;;;;;;5053135;28;45477;-68
2022/09/24 12:40:30;;;;;;;;;15.00;15.00;;;;;;;;5025596;28;45494;-68
2022/09/24 12:42:57;;;;;;;;;21.67;21.00;;;;;;;;5041241;28;45318;-68
2022/09/24 12:45:23;;;;;;;;;20.00;18.33;;;;;;;;5023558;28;47255;-69
2022/09/24 12:47:59;;;;;;;;;21.33;19.67;;;;;;;;5043267;28;45299;-69
2022/09/24 12:50:29;;;;;;;;;19.67;16.33;;;;;;;;5024943;28;45536;-68
2022/09/24 12:52:55;;;;;;;;;19.00;18.33;;;;;;;;5025507;28;45588;-69
2022/09/24 12:55:30;;;;;;;;;24.33;20.67;;;;;;;;5039382;28;45505;-68
2022/09/24 12:57:58;;;;;;;;;17.33;17.00;;;;;;;;5041313;28;45402;-68
2022/09/24 13:00:44;;;;;;;;;22.00;18.33;;;;;;;;5041836;28;45396;-72
2022/09/24 13:03:28;;;;;;;;;26.50;23.25;;;;;;;;5018955;28;45418;-68
2022/09/24 13:05:55;;;;;;;;;21.00;18.67;;;;;;;;5036239;28;46336;-68
2022/09/24 13:08:24;;;;;;;;;14.00;14.00;;;;;;;;5043339;28;45286;-68
2022/09/24 13:10:55;;;;;;;;;16.67;14.67;;;;;;;;5042214;28;45281;-67
2022/09/24 13:13:27;;;;;;;;;23.33;18.33;;;;;;;;5043263;28;45525;-67
2022/09/24 13:15:59;;;;;;;;;26.50;23.00;;;;;;;;5042013;28;45596;-67
2022/09/24 13:18:24;;;;;;;;;23.00;19.33;;;;;;;;5024046;28;45349;-67
2022/09/24 13:20:58;;;;;;;;;27.00;23.67;;;;;;;;5042513;28;45318;-67
2022/09/24 13:23:24;;;;;;;;;25.00;21.67;;;;;;;;5043647;28;45559;-67
2022/09/24 13:26:06;;;;;;;;;22.00;18.33;;;;;;;;5042016;28;45682;-67
2022/09/24 13:28:36;;;;;;;;;24.67;23.33;;;;;;;;5017037;28;45367;-67
2022/09/24 13:31:20;;;;;;;;;24.33;19.33;;;;;;;;5042059;28;45386;-67
2022/09/24 13:33:48;;;;;;;;;21.00;19.67;;;;;;;;5053669;28;45352;-67
2022/09/24 13:36:19;;;;;;;;;23.67;20.00;;;;;;;;5021889;28;47252;-66
2022/09/24 13:39:01;;;;;;;;;20.67;19.00;;;;;;;;5043244;28;45331;-66
2022/09/24 13:41:33;;;;;;;;;17.00;14.00;;;;;;;;5042383;28;45374;-66
2022/09/24 13:44:13;;;;;;;;;17.67;17.33;;;;;;;;5043079;28;45193;-65
2022/09/24 13:46:40;;;;;;;;;18.67;17.67;;;;;;;;5041449;28;45452;-66
2022/09/24 13:49:10;;;;;;;;;22.67;20.33;;;;;;;;5042400;28;45500;-66
2022/09/24 13:51:37;;;;;;;;;18.00;16.00;;;;;;;;5025071;28;45310;-66
2022/09/24 13:54:10;;;;;;;;;16.67;15.00;;;;;;;;5024411;28;45615;-67
2022/09/24 13:56:35;;;;;;;;;23.33;22.00;;;;;;;;5041701;28;45426;-67
2022/09/24 13:59:05;;;;;;;;;16.33;14.00;;;;;;;;5042691;28;45458;-66
2022/09/24 14:01:34;;;;;;;;;23.00;20.00;;;;;;;;5041688;28;45530;-66
2022/09/24 14:04:01;;;;;;;;;21.00;19.33;;;;;;;;5042805;28;45418;-69
2022/09/24 14:06:36;;;;;;;;;18.00;17.33;;;;;;;;5039901;28;45475;-66
2022/09/24 14:09:01;;;;;;;;;14.67;14.67;;;;;;;;5041638;28;45503;-66
2022/09/24 14:11:26;;;;;;;;;15.33;15.33;;;;;;;;5020620;28;45626;-66
2022/09/24 14:13:55;;;;;;;;;15.67;15.67;;;;;;;;5032904;28;45467;-66
2022/09/24 14:16:21;;;;;;;;;16.33;16.33;;;;;;;;5040966;28;45430;-66
2022/09/24 14:18:47;;;;;;;;;20.00;16.33;;;;;;;;5042445;28;45437;-68
2022/09/24 14:21:20;;;;;;;;;19.33;17.67;;;;;;;;5040974;28;45453;-66
2022/09/24 14:23:50;;;;;;;;;18.00;14.00;;;;;;;;5042325;28;45414;-66
2022/09/24 14:26:22;;;;;;;;;15.67;15.67;;;;;;;;5041305;28;45454;-66
2022/09/24 14:28:47;;;;;;;;;14.00;14.00;;;;;;;;5041985;28;45375;-66
2022/09/24 14:31:12;;;;;;;;;11.67;11.67;;;;;;;;5041430;28;45544;-67
2022/09/24 14:33:39;;;;;;;;;18.67;15.00;;;;;;;;5042490;28;45494;-70
2022/09/24 14:36:04;;;;;;;;;17.00;15.33;;;;;;;;5041617;28;45257;-67
2022/09/24 14:38:50;;;;;;;;;19.00;14.50;;;;;;;;5041797;28;45232;-68
2022/09/24 14:41:18;;;;;;;;;16.00;13.33;;;;;;;;5034405;28;45541;-67
2022/09/24 14:44:07;;;;;;;;;12.33;12.33;;;;;;;;5036553;28;45487;-68